Time;durP1;ratioP1;P1;durP2;ratioP2;P2;SDS_P1;SDS_P2;PMS_P1;PMS_P2;Temp;Humidity;BMP_temperature;BMP_pressure;BME280_temperature;BME280_humidity;BME280_pressure;Samples;Min_cycle;Max_cycle;Signal;HPM_P1;HPM_P2
2020/12/12 00:00:04;;;;;;;8.43;6.72;;;6.40;99.90;;;;;;5046962;28;20253;-76
2020/12/12 00:02:31;;;;;;;9.23;6.93;;;6.40;99.90;;;;;;5034536;28;20190;-75
2020/12/12 00:04:57;;;;;;;8.95;6.50;;;6.40;99.90;;;;;;5041017;28;20566;-76
2020/12/12 00:07:24;;;;;;;6.93;6.22;;;6.40;99.90;;;;;;5041430;28;20204;-77
2020/12/12 00:09:50;;;;;;;11.23;7.35;;;6.40;99.90;;;;;;5041625;28;20193;-77
2020/12/12 00:12:16;;;;;;;9.20;7.72;;;6.40;99.90;;;;;;5045110;28;20189;-75
2020/12/12 00:14:43;;;;;;;7.50;6.78;;;6.40;99.90;;;;;;5035857;28;20189;-77
2020/12/12 00:17:09;;;;;;;9.68;6.95;;;6.40;99.90;;;;;;5048577;28;20199;-76
2020/12/12 00:19:37;;;;;;;8.75;6.35;;;6.40;99.90;;;;;;5044355;28;20205;-76
2020/12/12 00:22:03;;;;;;;11.18;6.40;;;6.50;99.90;;;;;;5036828;28;20198;-77
2020/12/12 00:24:29;;;;;;;8.77;7.88;;;6.50;99.90;;;;;;5038530;28;20195;-75
2020/12/12 00:26:56;;;;;;;10.15;6.65;;;6.50;99.90;;;;;;5040239;28;20190;-77
2020/12/12 00:29:22;;;;;;;9.20;7.43;;;6.50;99.90;;;;;;5043993;28;20297;-76
2020/12/12 00:31:56;;;;;;;7.40;6.15;;;6.50;99.90;;;;;;5048970;28;20195;-75
2020/12/12 00:34:22;;;;;;;9.23;6.90;;;6.50;99.90;;;;;;5047728;28;20197;-77
2020/12/12 00:36:50;;;;;;;7.30;6.03;;;6.50;99.90;;;;;;5046539;28;20673;-75
2020/12/12 00:39:16;;;;;;;7.53;6.47;;;6.50;99.90;;;;;;5043231;28;20276;-76
2020/12/12 00:41:42;;;;;;;9.75;7.00;;;6.50;99.90;;;;;;5039361;28;20316;-77
2020/12/12 00:44:09;;;;;;;8.23;6.03;;;6.50;99.90;;;;;;5045387;28;20182;-77
2020/12/12 00:46:37;;;;;;;9.77;6.75;;;6.50;99.90;;;;;;5041737;28;20206;-77
2020/12/12 00:49:04;;;;;;;12.35;6.55;;;6.50;99.90;;;;;;5040837;28;20185;-77
2020/12/12 00:51:30;;;;;;;6.30;5.70;;;6.50;99.90;;;;;;5036630;28;20194;-77
2020/12/12 00:53:57;;;;;;;7.18;6.10;;;6.50;99.90;;;;;;5041682;28;20209;-76
2020/12/12 00:56:24;;;;;;;7.60;6.68;;;6.50;99.90;;;;;;5038511;28;20197;-75
2020/12/12 00:58:50;;;;;;;6.47;5.80;;;6.60;99.90;;;;;;5042893;28;20273;-76
2020/12/12 01:01:18;;;;;;;7.03;5.85;;;6.50;99.90;;;;;;5054515;28;20220;-77
2020/12/12 01:03:45;;;;;;;5.95;5.43;;;6.50;99.90;;;;;;5038794;28;20679;-76
2020/12/12 01:06:12;;;;;;;7.95;5.60;;;6.60;99.90;;;;;;5039601;28;20190;-75
2020/12/12 01:08:39;;;;;;;6.60;5.38;;;6.60;99.90;;;;;;5035424;28;20197;-76
2020/12/12 01:11:07;;;;;;;6.38;5.78;;;6.60;99.90;;;;;;5042278;28;20185;-76
2020/12/12 01:13:33;;;;;;;6.50;5.90;;;6.60;99.90;;;;;;5042147;28;20228;-76
2020/12/12 01:16:04;;;;;;;6.32;5.72;;;6.60;99.90;;;;;;5042748;28;20200;-77
2020/12/12 01:18:30;;;;;;;6.40;4.97;;;6.60;99.90;;;;;;5041398;28;20232;-77
2020/12/12 01:20:57;;;;;;;6.15;5.22;;;6.60;99.90;;;;;;5037171;28;20221;-76
2020/12/12 01:23:23;;;;;;;6.43;4.95;;;6.60;99.90;;;;;;5034810;28;20206;-78
2020/12/12 01:25:49;;;;;;;6.05;4.72;;;6.60;99.90;;;;;;5046084;28;20194;-76
2020/12/12 01:28:19;;;;;;;5.80;5.20;;;6.60;99.90;;;;;;5045006;28;20189;-76
2020/12/12 01:30:45;;;;;;;6.95;5.68;;;6.60;99.90;;;;;;5038853;28;20223;-76
2020/12/12 01:33:12;;;;;;;7.93;5.60;;;6.60;99.90;;;;;;5042078;28;20628;-77
2020/12/12 01:35:38;;;;;;;6.45;5.00;;;6.70;99.90;;;;;;5040234;28;20618;-76
2020/12/12 01:38:04;;;;;;;8.35;6.18;;;6.60;99.90;;;;;;5043523;28;20923;-76
2020/12/12 01:40:31;;;;;;;5.75;5.25;;;6.70;99.90;;;;;;5046511;28;20235;-77
2020/12/12 01:42:57;;;;;;;6.45;5.80;;;6.70;99.90;;;;;;5042702;28;20638;-75
2020/12/12 01:45:24;;;;;;;6.55;5.82;;;6.70;99.90;;;;;;5039258;28;20432;-75
2020/12/12 01:47:51;;;;;;;6.82;5.15;;;6.70;99.90;;;;;;5050642;28;20193;-77
2020/12/12 01:50:17;;;;;;;5.55;5.05;;;6.70;99.90;;;;;;5044920;28;20196;-76
2020/12/12 01:52:50;;;;;;;5.55;5.05;;;6.70;99.90;;;;;;5044948;28;20208;-76
2020/12/12 01:55:17;;;;;;;8.20;5.32;;;6.70;99.90;;;;;;5048742;28;20270;-77
2020/12/12 01:57:47;;;;;;;6.05;5.47;;;6.70;99.90;;;;;;5042810;28;20202;-77
2020/12/12 02:00:13;;;;;;;5.82;5.22;;;6.70;99.90;;;;;;5046676;28;20213;-77
2020/12/12 02:02:46;;;;;;;7.97;5.05;;;6.70;99.90;;;;;;5046932;28;20189;-76
2020/12/12 02:08:02;;;;;;;5.00;4.50;;;6.70;99.90;;;;;;5043945;28;20192;-75
2020/12/12 02:10:28;;;;;;;7.57;6.32;;;6.70;99.90;;;;;;5044268;28;20202;-77
2020/12/12 02:12:55;;;;;;;5.25;4.78;;;6.70;99.90;;;;;;5046678;28;20202;-75
2020/12/12 02:15:21;;;;;;;7.70;5.68;;;6.80;99.90;;;;;;5041736;28;20197;-77
2020/12/12 02:17:48;;;;;;;6.30;5.70;;;6.70;99.90;;;;;;5042422;28;20198;-77
2020/12/12 02:20:14;;;;;;;7.97;6.03;;;6.80;99.90;;;;;;5043967;28;20221;-76
2020/12/12 02:22:41;;;;;;;7.10;6.40;;;6.80;99.90;;;;;;5039850;28;20602;-75
2020/12/12 02:25:08;;;;;;;9.07;5.55;;;6.80;99.90;;;;;;5048348;28;20205;-75
2020/12/12 02:27:34;;;;;;;9.48;6.10;;;6.80;99.90;;;;;;5041968;28;20201;-78
2020/12/12 02:30:00;;;;;;;9.57;5.75;;;6.80;99.90;;;;;;5042404;28;20197;-77
2020/12/12 02:32:27;;;;;;;10.18;5.80;;;6.80;99.90;;;;;;5047023;28;20194;-76
2020/12/12 02:34:53;;;;;;;7.72;5.95;;;6.80;99.90;;;;;;5047053;28;20221;-76
2020/12/12 02:37:20;;;;;;;8.77;5.82;;;6.80;99.90;;;;;;5045757;28;20233;-77
2020/12/12 02:39:47;;;;;;;10.13;5.82;;;6.80;99.90;;;;;;5042866;28;20198;-77
2020/12/12 02:42:13;;;;;;;10.75;5.45;;;6.80;99.90;;;;;;5038292;28;20213;-77
2020/12/12 02:44:39;;;;;;;10.05;7.15;;;6.90;99.90;;;;;;5041951;28;20197;-78
2020/12/12 02:47:06;;;;;;;6.20;5.53;;;6.90;99.90;;;;;;5047401;28;20217;-76
2020/12/12 02:49:32;;;;;;;9.52;6.78;;;6.90;99.90;;;;;;5044167;28;20663;-78
2020/12/12 02:51:58;;;;;;;7.75;6.85;;;6.90;99.90;;;;;;5039041;28;20642;-75
2020/12/12 02:54:25;;;;;;;7.68;5.93;;;6.90;99.90;;;;;;5042217;28;20575;-77
2020/12/12 02:56:52;;;;;;;10.55;6.90;;;6.90;99.90;;;;;;5043727;28;20213;-77
2020/12/12 02:59:18;;;;;;;6.22;5.63;;;6.90;99.90;;;;;;5043306;28;20582;-75
2020/12/12 03:01:45;;;;;;;8.23;6.30;;;6.90;99.90;;;;;;5044300;28;20276;-77
2020/12/12 03:04:11;;;;;;;12.77;8.05;;;6.90;99.90;;;;;;5044190;28;20225;-76
2020/12/12 03:06:43;;;;;;;7.50;6.80;;;6.90;99.90;;;;;;5047295;28;20194;-76
2020/12/12 03:09:10;;;;;;;14.63;7.82;;;6.90;99.90;;;;;;5041307;28;20188;-76
2020/12/12 03:11:37;;;;;;;8.70;6.28;;;6.90;99.90;;;;;;5041351;28;20190;-76
2020/12/12 03:14:04;;;;;;;8.05;6.72;;;6.90;99.90;;;;;;5037546;28;20202;-76
2020/12/12 03:16:30;;;;;;;12.15;7.65;;;6.90;99.90;;;;;;5048727;28;20194;-76
2020/12/12 03:18:57;;;;;;;7.95;6.25;;;6.90;99.90;;;;;;5037799;28;20202;-78
2020/12/12 03:21:23;;;;;;;18.48;8.98;;;6.90;99.90;;;;;;5038554;28;20214;-76
2020/12/12 03:23:49;;;;;;;10.80;7.72;;;6.90;99.90;;;;;;5042473;28;20320;-76
2020/12/12 03:26:16;;;;;;;11.32;6.15;;;6.90;99.90;;;;;;5041019;28;20193;-77
2020/12/12 03:28:42;;;;;;;11.18;7.15;;;6.90;99.90;;;;;;5047970;28;20532;-77
2020/12/12 03:31:10;;;;;;;12.98;7.70;;;6.90;99.90;;;;;;5046628;28;20205;-76
2020/12/12 03:33:36;;;;;;;15.52;7.55;;;6.90;99.90;;;;;;5037934;28;20203;-76
2020/12/12 03:36:03;;;;;;;8.27;7.32;;;6.90;99.90;;;;;;5045491;28;20316;-77
2020/12/12 03:38:29;;;;;;;13.75;7.35;;;6.90;99.90;;;;;;5037573;28;20203;-77
2020/12/12 03:40:55;;;;;;;9.52;7.68;;;6.90;99.90;;;;;;5032323;28;20216;-77
2020/12/12 03:43:24;;;;;;;15.95;7.18;;;6.90;99.90;;;;;;5045958;28;20209;-75
2020/12/12 03:45:51;;;;;;;7.63;6.80;;;6.90;99.90;;;;;;5040838;28;20227;-77
2020/12/12 03:48:18;;;;;;;9.00;8.07;;;6.90;99.90;;;;;;5038836;28;20193;-77
2020/12/12 03:50:44;;;;;;;11.60;7.20;;;6.90;99.90;;;;;;5040395;28;20209;-75
2020/12/12 03:53:11;;;;;;;13.27;8.68;;;6.90;99.90;;;;;;5044724;28;20202;-76
2020/12/12 03:55:37;;;;;;;10.07;7.60;;;6.90;99.90;;;;;;5039810;28;20192;-75
2020/12/12 03:58:03;;;;;;;7.88;6.88;;;6.90;99.90;;;;;;5048164;28;20449;-76
2020/12/12 04:00:29;;;;;;;9.52;7.90;;;6.90;99.90;;;;;;5044017;28;20229;-75
2020/12/12 04:02:56;;;;;;;8.90;7.97;;;6.90;99.90;;;;;;5043628;28;20205;-76
2020/12/12 04:05:23;;;;;;;8.18;7.38;;;6.90;99.90;;;;;;5045277;28;20206;-76
2020/12/12 04:07:49;;;;;;;10.50;7.50;;;6.90;99.90;;;;;;5046758;28;20205;-75
2020/12/12 04:10:16;;;;;;;14.35;7.38;;;6.90;99.90;;;;;;5042901;28;20207;-76
2020/12/12 04:12:42;;;;;;;9.50;8.52;;;6.90;99.90;;;;;;5038617;28;20613;-76
2020/12/12 04:15:08;;;;;;;8.82;7.18;;;6.90;99.90;;;;;;5040357;28;20194;-76
2020/12/12 04:17:35;;;;;;;8.52;7.22;;;6.90;99.90;;;;;;5040457;28;20194;-76
2020/12/12 04:20:01;;;;;;;8.63;7.35;;;6.90;99.90;;;;;;5045113;28;20201;-77
2020/12/12 04:22:28;;;;;;;9.68;8.68;;;6.90;99.90;;;;;;5037972;28;20225;-75
2020/12/12 04:24:55;;;;;;;8.70;7.25;;;6.90;99.90;;;;;;5040430;28;20244;-75
2020/12/12 04:27:21;;;;;;;8.60;7.15;;;6.90;99.90;;;;;;5041784;28;20197;-75
2020/12/12 04:29:47;;;;;;;8.60;7.65;;;6.80;99.90;;;;;;5040933;28;20196;-75
2020/12/12 04:32:14;;;;;;;9.43;8.45;;;6.80;99.90;;;;;;5048139;28;20648;-75
2020/12/12 04:34:40;;;;;;;9.88;7.85;;;6.80;99.90;;;;;;5038181;28;20589;-75
2020/12/12 04:37:06;;;;;;;8.07;7.38;;;6.80;99.90;;;;;;5048019;28;20525;-75
2020/12/12 04:39:36;;;;;;;11.15;7.78;;;6.80;99.90;;;;;;5041565;28;20208;-75
2020/12/12 04:42:03;;;;;;;14.57;8.85;;;6.80;99.90;;;;;;5045163;28;20225;-75
2020/12/12 04:44:30;;;;;;;9.43;8.20;;;6.80;99.90;;;;;;5041804;28;20197;-76
2020/12/12 04:46:57;;;;;;;11.27;9.00;;;6.80;99.90;;;;;;5038686;28;20212;-75
2020/12/12 04:49:24;;;;;;;9.00;8.10;;;6.80;99.90;;;;;;5031357;28;20293;-76
2020/12/12 04:51:51;;;;;;;8.55;7.75;;;6.80;99.90;;;;;;5042957;28;20571;-74
2020/12/12 04:54:20;;;;;;;10.23;7.68;;;6.80;99.90;;;;;;5035931;28;20198;-76
2020/12/12 04:56:48;;;;;;;10.15;8.63;;;6.80;99.90;;;;;;5047237;28;20212;-74
2020/12/12 04:59:16;;;;;;;8.77;7.70;;;6.80;99.90;;;;;;5046064;28;20197;-75
2020/12/12 05:01:43;;;;;;;8.88;7.93;;;6.80;99.90;;;;;;5038990;28;20576;-74
2020/12/12 05:04:09;;;;;;;10.05;8.90;;;6.80;99.90;;;;;;5030450;28;20581;-74
2020/12/12 05:06:36;;;;;;;9.30;8.25;;;6.80;99.90;;;;;;5035724;28;20195;-75
2020/12/12 05:09:02;;;;;;;10.18;7.55;;;6.80;99.90;;;;;;5038232;28;20186;-74
2020/12/12 05:11:29;;;;;;;9.35;8.20;;;6.80;99.90;;;;;;5039237;28;20196;-75
2020/12/12 05:13:56;;;;;;;11.25;9.50;;;6.80;99.90;;;;;;5040138;28;20683;-75
2020/12/12 05:16:23;;;;;;;11.18;8.75;;;6.80;99.90;;;;;;5038810;28;20204;-75
2020/12/12 05:18:50;;;;;;;8.85;7.63;;;6.80;99.90;;;;;;5042327;28;20590;-75
2020/12/12 05:21:17;;;;;;;9.68;8.68;;;6.80;99.90;;;;;;5035412;28;20224;-74
2020/12/12 05:23:44;;;;;;;12.70;10.38;;;6.80;99.90;;;;;;5043056;28;20205;-73
2020/12/12 05:26:12;;;;;;;10.57;9.48;;;6.80;99.90;;;;;;5049181;28;20203;-76
2020/12/12 05:28:40;;;;;;;10.95;9.45;;;6.80;99.90;;;;;;5045597;28;20283;-75
2020/12/12 05:31:09;;;;;;;9.88;8.40;;;6.90;99.90;;;;;;5047091;28;20204;-74
2020/12/12 05:33:35;;;;;;;17.15;8.93;;;6.80;99.90;;;;;;5038108;28;20193;-75
2020/12/12 05:36:02;;;;;;;15.43;9.85;;;6.90;99.90;;;;;;5042719;28;20232;-75
2020/12/12 05:38:28;;;;;;;13.52;9.23;;;6.90;99.90;;;;;;5051320;28;20205;-76
2020/12/12 05:40:55;;;;;;;9.35;8.38;;;6.90;99.90;;;;;;5042472;28;20755;-76
2020/12/12 05:43:29;;;;;;;14.27;9.82;;;6.90;99.90;;;;;;5045738;28;20720;-75
2020/12/12 05:45:59;;;;;;;10.50;9.40;;;6.90;99.90;;;;;;5044446;28;20201;-74
2020/12/12 05:48:26;;;;;;;13.35;9.82;;;6.90;99.90;;;;;;5042233;28;20252;-76
2020/12/12 05:50:53;;;;;;;13.35;9.90;;;6.90;99.90;;;;;;5046084;28;20204;-76
2020/12/12 05:53:20;;;;;;;13.05;9.50;;;6.90;99.90;;;;;;5044240;28;20208;-76
2020/12/12 05:55:46;;;;;;;17.80;9.35;;;6.90;99.90;;;;;;5048569;28;20205;-77
2020/12/12 05:58:14;;;;;;;10.07;8.30;;;6.90;99.90;;;;;;5047539;28;20260;-75
2020/12/12 06:00:42;;;;;;;11.73;8.85;;;6.90;99.90;;;;;;5043099;28;20213;-75
2020/12/12 06:03:20;;;;;;;11.90;8.60;;;6.90;99.90;;;;;;5044084;28;20198;-76
2020/12/12 06:05:52;;;;;;;14.18;10.00;;;6.90;99.90;;;;;;5045257;28;20193;-75
2020/12/12 06:08:30;;;;;;;15.00;9.55;;;7.00;99.90;;;;;;5040996;28;20216;-75
2020/12/12 06:11:01;;;;;;;11.77;9.23;;;7.00;99.90;;;;;;5040963;28;20209;-75
2020/12/12 06:13:33;;;;;;;12.38;9.43;;;7.00;99.90;;;;;;5047482;28;20193;-75
2020/12/12 06:16:03;;;;;;;13.13;9.32;;;7.00;99.90;;;;;;5046128;28;20201;-75
2020/12/12 06:18:42;;;;;;;14.93;9.63;;;7.00;99.90;;;;;;5044705;28;20203;-74
2020/12/12 06:21:10;;;;;;;13.43;9.40;;;7.00;99.90;;;;;;5054222;28;20229;-75
2020/12/12 06:23:39;;;;;;;11.43;9.00;;;7.00;99.90;;;;;;5048883;28;20204;-74
2020/12/12 06:26:06;;;;;;;10.93;9.75;;;7.00;99.90;;;;;;5042547;28;20196;-74
2020/12/12 06:28:40;;;;;;;11.98;10.05;;;7.00;99.90;;;;;;5045608;28;20292;-74
2020/12/12 06:31:07;;;;;;;11.93;9.95;;;7.00;99.90;;;;;;5051091;28;20197;-76
2020/12/12 06:33:48;;;;;;;13.07;9.80;;;7.00;99.90;;;;;;5042582;28;20193;-75
2020/12/12 06:36:29;;;;;;;18.13;11.00;;;7.00;99.90;;;;;;5042664;28;20229;-75
2020/12/12 06:39:21;;;;;;;12.65;10.00;;;7.00;99.90;;;;;;5043170;28;20189;-75
2020/12/12 06:41:50;;;;;;;11.98;9.73;;;7.00;99.90;;;;;;5037136;28;20625;-74
2020/12/12 06:44:37;;;;;;;13.00;9.77;;;7.00;99.90;;;;;;5047280;28;20243;-75
2020/12/12 06:47:05;;;;;;;16.20;10.70;;;7.00;99.90;;;;;;5049968;28;20658;-73
2020/12/12 06:49:32;;;;;;;15.40;11.10;;;7.00;99.90;;;;;;5050348;28;20563;-75
2020/12/12 06:51:59;;;;;;;16.23;9.45;;;7.00;99.90;;;;;;5041374;28;20197;-75
2020/12/12 06:54:26;;;;;;;14.15;9.52;;;7.00;99.90;;;;;;5041401;28;20201;-75
2020/12/12 06:56:52;;;;;;;15.27;10.15;;;7.00;99.90;;;;;;5046314;28;20609;-74
2020/12/12 06:59:30;;;;;;;15.32;9.85;;;7.10;99.90;;;;;;5043613;28;20190;-75
2020/12/12 07:01:57;;;;;;;14.32;10.98;;;7.10;99.90;;;;;;5039992;28;20578;-74
2020/12/12 07:04:26;;;;;;;15.40;10.80;;;7.00;99.90;;;;;;5046262;28;20200;-76
2020/12/12 07:06:57;;;;;;;15.75;11.30;;;7.10;99.90;;;;;;5044730;28;20192;-76
2020/12/12 07:09:26;;;;;;;18.35;11.68;;;7.00;99.90;;;;;;5032842;28;20503;-74
2020/12/12 07:11:53;;;;;;;16.83;11.80;;;7.00;99.90;;;;;;5042965;28;20189;-74
2020/12/12 07:14:20;;;;;;;11.93;10.45;;;7.00;99.90;;;;;;5043411;28;20562;-75
2020/12/12 07:16:46;;;;;;;13.32;9.45;;;7.00;99.90;;;;;;5047125;28;20201;-73
2020/12/12 07:19:16;;;;;;;17.60;11.45;;;7.10;99.90;;;;;;5041157;28;20201;-73
2020/12/12 07:21:43;;;;;;;12.05;10.60;;;7.00;99.90;;;;;;5038740;28;20271;-74
2020/12/12 07:24:10;;;;;;;15.70;10.88;;;7.10;99.90;;;;;;5042139;28;20213;-75
2020/12/12 07:26:37;;;;;;;14.02;10.93;;;7.10;99.90;;;;;;5043160;28;20626;-74
2020/12/12 07:29:03;;;;;;;17.55;10.75;;;7.10;99.90;;;;;;5042612;28;20280;-75
2020/12/12 07:31:30;;;;;;;17.85;10.90;;;7.10;99.90;;;;;;5045656;28;20200;-74
2020/12/12 07:34:00;;;;;;;17.15;10.20;;;7.10;99.90;;;;;;5043066;28;20736;-75
2020/12/12 07:36:27;;;;;;;19.15;11.20;;;7.10;99.90;;;;;;5038136;28;20220;-73
2020/12/12 07:38:53;;;;;;;16.70;10.02;;;7.10;99.90;;;;;;5046062;28;20196;-74
2020/12/12 07:41:20;;;;;;;18.27;9.75;;;7.10;99.90;;;;;;5046774;28;20237;-75
2020/12/12 07:43:53;;;;;;;16.45;11.13;;;7.00;99.90;;;;;;5043240;28;20232;-74
2020/12/12 07:46:19;;;;;;;22.67;11.13;;;7.10;99.90;;;;;;5045452;28;20202;-74
2020/12/12 07:48:58;;;;;;;15.60;11.75;;;7.10;99.90;;;;;;5045866;28;20207;-75
2020/12/12 07:51:24;;;;;;;19.38;11.48;;;7.00;99.90;;;;;;5042247;28;20193;-76
2020/12/12 07:53:50;;;;;;;30.23;12.70;;;7.00;99.90;;;;;;5049317;28;20533;-75
2020/12/12 07:56:18;;;;;;;18.13;12.02;;;7.00;99.90;;;;;;5047209;28;20189;-76
2020/12/12 07:58:57;;;;;;;16.88;11.50;;;7.00;99.90;;;;;;5044480;28;20190;-75
2020/12/12 08:01:24;;;;;;;17.35;13.07;;;7.00;99.90;;;;;;5036346;28;20213;-75
2020/12/12 08:03:51;;;;;;;21.25;12.45;;;7.10;99.90;;;;;;5044601;28;20189;-76
2020/12/12 08:06:17;;;;;;;16.92;12.20;;;7.00;99.90;;;;;;5038467;28;20240;-75
2020/12/12 08:08:53;;;;;;;20.20;11.77;;;7.10;99.90;;;;;;5044393;28;20198;-74
2020/12/12 08:11:20;;;;;;;19.92;14.65;;;7.00;99.90;;;;;;5040761;28;20291;-76
2020/12/12 08:13:48;;;;;;;19.80;13.55;;;7.00;99.90;;;;;;5038888;28;20195;-75
2020/12/12 08:16:19;;;;;;;31.75;14.20;;;7.00;99.90;;;;;;5041474;28;20209;-75
2020/12/12 08:18:46;;;;;;;23.08;14.52;;;7.00;99.90;;;;;;5043828;28;20228;-75
2020/12/12 08:21:14;;;;;;;16.90;12.98;;;7.10;99.90;;;;;;5044086;28;20205;-76
2020/12/12 08:23:41;;;;;;;20.67;11.35;;;7.10;99.90;;;;;;5043129;28;20225;-74
2020/12/12 08:26:11;;;;;;;17.33;11.18;;;7.10;99.90;;;;;;5041578;28;20225;-75
2020/12/12 08:28:37;;;;;;;11.38;9.80;;;7.10;99.90;;;;;;5041132;28;20592;-76
2020/12/12 08:31:11;;;;;;;18.10;12.32;;;7.10;99.90;;;;;;5037078;28;20194;-75
2020/12/12 08:33:39;;;;;;;14.77;11.57;;;7.10;99.90;;;;;;5033255;28;20217;-75
2020/12/12 08:36:13;;;;;;;20.50;12.02;;;7.20;99.90;;;;;;5040369;28;20234;-76
2020/12/12 08:38:42;;;;;;;21.48;11.90;;;7.20;99.90;;;;;;5042473;28;20201;-77
2020/12/12 08:41:13;;;;;;;14.77;10.70;;;7.20;99.90;;;;;;5039139;28;20962;-77
2020/12/12 08:43:42;;;;;;;17.95;10.65;;;7.20;99.90;;;;;;5044440;28;20205;-76
2020/12/12 08:46:08;;;;;;;15.55;10.48;;;7.20;99.90;;;;;;5043364;28;20189;-75
2020/12/12 08:48:36;;;;;;;16.73;10.57;;;7.20;99.90;;;;;;5040155;28;20225;-75
2020/12/12 08:51:05;;;;;;;19.70;10.50;;;7.20;99.90;;;;;;5043123;28;20320;-74
2020/12/12 08:53:34;;;;;;;17.90;11.55;;;7.20;99.90;;;;;;5044782;28;20210;-76
2020/12/12 08:56:11;;;;;;;17.10;10.93;;;7.30;99.90;;;;;;5041058;28;20189;-76
2020/12/12 08:58:40;;;;;;;22.42;12.70;;;7.30;99.90;;;;;;5041347;28;20211;-76
2020/12/12 09:01:18;;;;;;;14.93;11.18;;;7.30;99.90;;;;;;5040204;28;20232;-77
2020/12/12 09:03:53;;;;;;;19.42;11.95;;;7.30;99.90;;;;;;5038189;28;20199;-75
2020/12/12 09:06:21;;;;;;;12.88;10.05;;;7.30;99.90;;;;;;5038389;28;20195;-76
2020/12/12 09:08:47;;;;;;;16.17;10.98;;;7.30;99.90;;;;;;5034694;28;20961;-73
2020/12/12 09:11:14;;;;;;;18.80;10.43;;;7.30;99.90;;;;;;5036749;28;20207;-76
2020/12/12 09:13:41;;;;;;;19.45;10.35;;;7.30;99.90;;;;;;5042399;28;20292;-76
2020/12/12 09:16:08;;;;;;;18.80;12.15;;;7.40;99.90;;;;;;5046972;28;20190;-77
2020/12/12 09:18:44;;;;;;;12.10;9.10;;;7.40;99.90;;;;;;5046367;28;20208;-75
2020/12/12 09:21:11;;;;;;;24.20;12.00;;;7.40;99.90;;;;;;5034411;28;20671;-74
2020/12/12 09:23:39;;;;;;;21.50;10.48;;;7.40;99.90;;;;;;5033532;28;20250;-76
2020/12/12 09:26:06;;;;;;;23.27;10.18;;;7.40;99.90;;;;;;5035989;28;20657;-76
2020/12/12 09:28:33;;;;;;;17.38;10.13;;;7.30;99.90;;;;;;5036961;28;20302;-74
2020/12/12 09:31:00;;;;;;;17.75;10.80;;;7.30;99.90;;;;;;5038301;28;20198;-75
2020/12/12 09:33:26;;;;;;;17.15;10.15;;;7.30;99.90;;;;;;5033490;28;20200;-75
2020/12/12 09:35:53;;;;;;;16.83;10.50;;;7.30;99.90;;;;;;5044447;28;20228;-75
2020/12/12 09:38:19;;;;;;;15.20;10.27;;;7.30;99.90;;;;;;5038681;28;20352;-77
2020/12/12 09:40:49;;;;;;;13.48;9.60;;;7.40;99.90;;;;;;5036065;28;20587;-76
2020/12/12 09:43:16;;;;;;;14.02;9.95;;;7.40;99.90;;;;;;5036506;28;20229;-77
2020/12/12 09:45:43;;;;;;;16.65;10.73;;;7.40;99.90;;;;;;5036903;28;20198;-76
2020/12/12 09:48:10;;;;;;;17.13;10.77;;;7.40;99.90;;;;;;5040394;28;20196;-74
2020/12/12 09:50:37;;;;;;;14.57;9.75;;;7.40;99.90;;;;;;5036826;28;20197;-76
2020/12/12 09:53:04;;;;;;;18.85;13.18;;;7.50;99.90;;;;;;5035962;28;20284;-77
2020/12/12 09:55:31;;;;;;;15.13;10.82;;;7.50;99.90;;;;;;5036773;28;20197;-75
2020/12/12 09:57:58;;;;;;;15.43;10.40;;;7.50;99.90;;;;;;5041778;28;20205;-76
2020/12/12 10:00:25;;;;;;;15.15;10.93;;;7.50;99.90;;;;;;5041223;28;20262;-76
2020/12/12 10:02:51;;;;;;;14.20;10.05;;;7.50;99.90;;;;;;5039958;28;20618;-75
2020/12/12 10:05:19;;;;;;;14.90;11.10;;;7.50;99.90;;;;;;5042026;28;20198;-76
2020/12/12 10:07:46;;;;;;;20.42;11.07;;;7.60;99.90;;;;;;5040451;28;20202;-76
2020/12/12 10:10:12;;;;;;;18.40;10.77;;;7.60;99.90;;;;;;5042915;28;20251;-76
2020/12/12 10:12:38;;;;;;;13.43;9.93;;;7.60;99.90;;;;;;5043338;28;20789;-75
2020/12/12 10:15:05;;;;;;;15.93;10.32;;;7.70;99.90;;;;;;5045057;28;20209;-76
2020/12/12 10:17:32;;;;;;;14.55;10.85;;;7.70;99.90;;;;;;5044194;28;20208;-76
2020/12/12 10:19:58;;;;;;;13.05;10.43;;;7.70;99.90;;;;;;5043857;28;20197;-77
2020/12/12 10:22:25;;;;;;;16.42;12.32;;;7.70;99.90;;;;;;5040427;28;20290;-75
2020/12/12 10:24:51;;;;;;;18.63;10.70;;;7.70;99.90;;;;;;5042751;28;20273;-76
2020/12/12 10:27:19;;;;;;;13.43;10.02;;;7.70;99.90;;;;;;5048721;28;20288;-75
2020/12/12 10:29:45;;;;;;;15.65;11.18;;;7.80;99.90;;;;;;5045112;28;20243;-75
2020/12/12 10:32:13;;;;;;;21.73;11.02;;;7.80;99.90;;;;;;5040126;28;20201;-75
2020/12/12 10:34:39;;;;;;;18.33;11.05;;;7.80;99.90;;;;;;5036050;28;20645;-76
2020/12/12 10:37:05;;;;;;;16.65;10.90;;;7.80;99.90;;;;;;5040508;28;20321;-76
2020/12/12 10:39:34;;;;;;;19.08;11.90;;;7.80;99.90;;;;;;5043111;28;20190;-76
2020/12/12 10:42:01;;;;;;;19.30;11.23;;;7.90;99.90;;;;;;5045572;28;20221;-76
2020/12/12 10:44:27;;;;;;;19.23;11.77;;;7.90;99.90;;;;;;5043391;28;20198;-75
2020/12/12 10:46:54;;;;;;;17.27;11.50;;;7.90;99.90;;;;;;5044780;28;20197;-77
2020/12/12 10:49:21;;;;;;;14.43;10.68;;;7.90;99.90;;;;;;5039462;28;20196;-75
2020/12/12 10:51:53;;;;;;;13.13;11.50;;;7.90;99.90;;;;;;5041159;28;20195;-76
2020/12/12 10:54:19;;;;;;;39.35;14.77;;;7.90;99.90;;;;;;5040327;28;20199;-76
2020/12/12 10:56:47;;;;;;;29.25;16.70;;;7.90;99.90;;;;;;5040047;28;20237;-75
2020/12/12 10:59:14;;;;;;;27.70;14.70;;;7.90;99.90;;;;;;5043416;28;20280;-75
2020/12/12 11:01:40;;;;;;;25.05;14.35;;;7.90;99.90;;;;;;5040027;28;20220;-75
2020/12/12 11:04:07;;;;;;;26.02;14.70;;;7.90;99.90;;;;;;5039913;28;20195;-77
2020/12/12 11:06:34;;;;;;;24.90;12.45;;;7.90;99.90;;;;;;5042270;28;20847;-75
2020/12/12 11:09:01;;;;;;;20.67;11.52;;;7.90;99.90;;;;;;5042901;28;20556;-75
2020/12/12 11:11:27;;;;;;;26.60;14.52;;;7.90;99.90;;;;;;5044367;28;20253;-75
2020/12/12 11:13:54;;;;;;;21.83;14.77;;;8.00;99.90;;;;;;5044138;28;20190;-76
2020/12/12 11:16:20;;;;;;;15.02;10.90;;;8.00;99.90;;;;;;5044504;28;20203;-76
2020/12/12 11:18:48;;;;;;;17.67;11.70;;;8.10;99.90;;;;;;5045750;28;20203;-75
2020/12/12 11:21:18;;;;;;;24.38;11.88;;;8.40;99.90;;;;;;5044194;28;20194;-78
2020/12/12 11:23:46;;;;;;;20.42;13.38;;;8.50;99.90;;;;;;5040561;28;20599;-77
2020/12/12 11:26:12;;;;;;;14.48;11.68;;;8.50;99.90;;;;;;5041155;28;20203;-76
2020/12/12 11:28:40;;;;;;;14.88;11.32;;;8.50;99.90;;;;;;5042201;28;20220;-76
2020/12/12 11:31:06;;;;;;;19.00;10.52;;;8.50;99.90;;;;;;5040841;28;20190;-76
2020/12/12 11:33:35;;;;;;;16.00;11.20;;;8.50;99.90;;;;;;5042147;28;20537;-75
2020/12/12 11:36:13;;;;;;;19.13;11.98;;;8.50;99.90;;;;;;5047191;28;20571;-75
2020/12/12 11:38:43;;;;;;;19.52;10.32;;;8.50;99.90;;;;;;5042967;28;20201;-77
2020/12/12 11:41:32;;;;;;;16.45;11.68;;;8.50;99.90;;;;;;5035467;28;20205;-77
2020/12/12 11:46:47;;;;;;;16.05;11.02;;;8.50;99.90;;;;;;5037703;28;20259;-76
2020/12/12 11:49:13;;;;;;;16.60;11.13;;;8.40;99.90;;;;;;5043117;28;20639;-77
2020/12/12 11:51:40;;;;;;;18.98;10.75;;;8.40;99.90;;;;;;5040626;28;20213;-76
2020/12/12 11:54:07;;;;;;;16.45;11.32;;;8.40;99.90;;;;;;5039116;28;20286;-77
2020/12/12 11:56:34;;;;;;;15.38;11.23;;;8.40;99.90;;;;;;5041894;28;20202;-76
2020/12/12 11:59:01;;;;;;;13.45;10.65;;;8.40;99.90;;;;;;5046689;28;20195;-77
2020/12/12 12:01:28;;;;;;;16.80;10.93;;;8.50;99.90;;;;;;5036605;28;20227;-75
2020/12/12 12:03:56;;;;;;;16.20;11.00;;;8.40;99.90;;;;;;5040252;28;20196;-77
2020/12/12 12:06:23;;;;;;;15.45;10.48;;;8.50;99.90;;;;;;5042950;28;20198;-76
2020/12/12 12:09:08;;;;;;;17.40;9.65;;;8.50;99.90;;;;;;5039555;28;20224;-76
2020/12/12 12:11:37;;;;;;;17.00;10.25;;;8.50;99.90;;;;;;5041456;28;20203;-76
2020/12/12 12:14:07;;;;;;;13.02;9.98;;;8.50;99.90;;;;;;5039013;28;20203;-76
2020/12/12 12:16:36;;;;;;;16.45;10.10;;;8.50;99.90;;;;;;5035950;28;20197;-75
2020/12/12 12:19:03;;;;;;;15.50;11.20;;;8.50;99.90;;;;;;5036832;28;20285;-76
2020/12/12 12:21:30;;;;;;;11.20;9.32;;;8.50;99.90;;;;;;5044749;28;20693;-77
2020/12/12 12:23:56;;;;;;;15.07;10.50;;;8.60;99.90;;;;;;5036021;28;20186;-76
2020/12/12 12:26:22;;;;;;;17.33;10.77;;;8.60;99.90;;;;;;5035110;28;20209;-77
2020/12/12 12:28:50;;;;;;;14.65;10.93;;;8.60;99.90;;;;;;5036455;28;20198;-77
2020/12/12 12:31:20;;;;;;;13.35;10.40;;;8.60;99.90;;;;;;5042829;28;20193;-76
2020/12/12 12:33:46;;;;;;;13.65;10.32;;;8.60;99.90;;;;;;5039803;28;20211;-76
2020/12/12 12:36:13;;;;;;;13.70;9.85;;;8.60;99.90;;;;;;5047192;28;20232;-76
2020/12/12 12:38:39;;;;;;;16.77;11.45;;;8.60;99.90;;;;;;5036855;28;20220;-77
2020/12/12 12:41:06;;;;;;;12.48;9.88;;;8.60;99.90;;;;;;5038107;28;20199;-78
2020/12/12 12:43:32;;;;;;;15.77;10.35;;;8.60;99.90;;;;;;5035198;28;20223;-76
2020/12/12 12:45:59;;;;;;;15.32;11.25;;;8.60;99.90;;;;;;5043981;28;20194;-76
2020/12/12 12:48:25;;;;;;;13.90;11.27;;;8.60;99.90;;;;;;5044926;28;20191;-77
2020/12/12 12:50:52;;;;;;;15.15;12.20;;;8.70;99.90;;;;;;5042230;28;20199;-76
2020/12/12 12:53:18;;;;;;;21.08;13.18;;;8.70;99.90;;;;;;5035636;28;20213;-76